Terminal Aerodrome Forecast
Issued by NWS Cleveland, OH

Home | Current Version | Previous Version | Graphics & Text | Print | Product List | Glossary Off
Versions: 1 2 3 4 5 6 7 8 9 10 11 12 13 14 15 16 17

478
FTUS41 KCLE 171920 AAA
TAFCAK
TAF AMD
KCAK 171920Z 1719/1818 19012G22KT P6SM VCSH BKN035 OVC100
     FM172030 20012G20KT 6SM -SHRA VCTS SCT025 BKN045CB
      TEMPO 1721/1723 2SM TSRA BKN015CB
     FM172300 20010KT P6SM VCSH BKN060
     FM180800 22007KT P6SM BKN015
     FM181400 26014G22KT P6SM BKN025=

USA.gov is the U.S. government's official web portal to all federal, state and local government web resources and services.